Time;durP1;ratioP1;P1;durP2;ratioP2;P2;SDS_P1;SDS_P2;PMS_P1;PMS_P2;Temp;Humidity;BMP_temperature;BMP_pressure;BME280_temperature;BME280_humidity;BME280_pressure;Samples;Min_cycle;Max_cycle;Signal;HPM_P1;HPM_P2
2023/10/28 00:00:36;;;;;;;3.37;1.00;;;;;;;7.17;100.00;92567.50;5068843;28;20121;-61
2023/10/28 00:03:04;;;;;;;3.40;1.30;;;;;;;7.19;100.00;92571.34;5069534;28;20041;-61
2023/10/28 00:05:31;;;;;;;4.47;1.30;;;;;;;7.27;100.00;92582.84;5068262;28;20049;-61
2023/10/28 00:07:58;;;;;;;6.00;2.83;;;;;;;7.32;100.00;92582.31;5069563;28;20048;-61
2023/10/28 00:10:25;;;;;;;3.80;1.38;;;;;;;7.30;100.00;92575.75;5069060;28;20054;-61
2023/10/28 00:12:51;;;;;;;3.20;1.13;;;;;;;7.23;100.00;92578.69;5050637;28;20038;-62
2023/10/28 00:15:18;;;;;;;2.65;1.00;;;;;;;7.11;100.00;92574.66;5069221;28;20041;-61
2023/10/28 00:17:50;;;;;;;2.95;1.15;;;;;;;7.04;100.00;92567.41;5050991;28;20046;-61
2023/10/28 00:20:18;;;;;;;2.53;1.05;;;;;;;6.94;100.00;92565.69;5069215;28;20044;-60
2023/10/28 00:22:49;;;;;;;2.38;1.10;;;;;;;6.86;100.00;92569.78;5068443;28;20040;-61
2023/10/28 00:25:16;;;;;;;2.67;1.10;;;;;;;6.84;100.00;92564.78;5051378;28;20543;-62
2023/10/28 00:27:43;;;;;;;2.95;1.42;;;;;;;6.83;100.00;92571.41;5055605;28;20045;-61
2023/10/28 00:30:11;;;;;;;3.63;1.30;;;;;;;6.79;100.00;92565.25;5073168;28;20143;-61
2023/10/28 00:32:38;;;;;;;2.92;1.20;;;;;;;6.83;100.00;92568.69;5068288;28;20048;-59
2023/10/28 00:35:07;;;;;;;4.00;1.30;;;;;;;6.80;100.00;92577.69;5051098;28;20056;-60
2023/10/28 00:37:37;;;;;;;3.80;1.27;;;;;;;6.75;100.00;92575.50;5068530;28;20044;-60
2023/10/28 00:40:06;;;;;;;3.85;1.30;;;;;;;6.79;100.00;92574.22;5068602;28;20417;-61
2023/10/28 00:42:35;;;;;;;6.88;2.88;;;;;;;6.78;100.00;92578.13;5068502;28;20051;-61
2023/10/28 00:45:08;;;;;;;3.95;1.42;;;;;;;6.82;100.00;92571.81;5068550;28;20044;-61
2023/10/28 00:47:39;;;;;;;4.68;1.10;;;;;;;6.83;100.00;92574.13;5075957;28;20134;-61
2023/10/28 00:50:14;;;;;;;3.63;1.27;;;;;;;6.90;100.00;92578.66;5068316;28;20040;-61
2023/10/28 00:52:45;;;;;;;4.10;1.10;;;;;;;6.93;100.00;92575.09;5067992;28;20051;-61
2023/10/28 00:55:13;;;;;;;4.85;1.15;;;;;;;6.88;100.00;92581.81;5067942;28;20051;-60
2023/10/28 00:57:42;;;;;;;4.38;1.13;;;;;;;6.94;100.00;92571.94;5067318;28;20398;-60
2023/10/28 01:00:11;;;;;;;4.07;1.25;;;;;;;6.85;100.00;92585.38;5068288;28;20044;-60
2023/10/28 01:02:40;;;;;;;3.63;1.10;;;;;;;6.86;100.00;92578.75;5068009;28;20041;-62
2023/10/28 01:05:11;;;;;;;6.13;1.20;;;;;;;6.84;100.00;92589.31;5055270;28;20504;-61
2023/10/28 01:07:40;;;;;;;6.10;1.58;;;;;;;6.88;100.00;92587.28;5067706;28;20056;-61
2023/10/28 01:10:08;;;;;;;5.45;1.10;;;;;;;6.98;100.00;92601.84;5068327;28;20045;-61
2023/10/28 01:12:35;;;;;;;3.03;1.20;;;;;;;7.08;100.00;92600.06;5050025;28;20051;-61
2023/10/28 01:15:02;;;;;;;3.40;1.10;;;;;;;7.12;100.00;92608.94;5066465;28;20054;-61
2023/10/28 01:17:31;;;;;;;5.13;1.13;;;;;;;7.22;100.00;92596.22;5067608;28;20051;-60
2023/10/28 01:19:58;;;;;;;4.22;1.27;;;;;;;7.25;100.00;92590.69;5067602;28;20418;-60
2023/10/28 01:22:25;;;;;;;6.53;1.50;;;;;;;7.18;100.00;92591.63;5067677;28;20074;-60
2023/10/28 01:24:52;;;;;;;4.63;1.40;;;;;;;7.19;100.00;92584.22;5066682;28;20485;-60
2023/10/28 01:27:19;;;;;;;5.03;1.30;;;;;;;7.20;100.00;92585.72;5054615;28;20256;-61
2023/10/28 01:29:46;;;;;;;4.38;1.20;;;;;;;7.20;100.00;92589.25;5067767;28;20074;-64
2023/10/28 01:32:14;;;;;;;6.95;1.67;;;;;;;7.18;100.00;92588.91;5067366;28;20097;-61
2023/10/28 01:34:59;;;;;;;4.38;1.20;;;;;;;7.14;100.00;92592.91;5066902;28;20047;-60
2023/10/28 01:37:26;;;;;;;5.10;1.08;;;;;;;7.19;100.00;92590.44;5067362;28;20523;-60
2023/10/28 01:39:53;;;;;;;3.13;1.20;;;;;;;7.22;100.00;92598.97;5048897;28;20046;-60
2023/10/28 01:42:21;;;;;;;4.32;1.27;;;;;;;7.20;100.00;92580.28;5067324;28;20075;-60
2023/10/28 01:44:49;;;;;;;8.55;3.42;;;;;;;7.26;100.00;92586.75;5066593;28;20043;-61
2023/10/28 01:47:16;;;;;;;5.60;1.30;;;;;;;7.23;100.00;92586.88;5074512;28;20047;-61
2023/10/28 01:49:43;;;;;;;3.47;1.40;;;;;;;7.14;100.00;92590.16;5066638;28;20420;-60
2023/10/28 01:52:12;;;;;;;4.83;1.40;;;;;;;7.17;100.00;92589.34;5066733;28;20045;-61
2023/10/28 01:54:39;;;;;;;5.78;1.27;;;;;;;7.15;100.00;92592.47;5066779;28;20658;-63
2023/10/28 01:57:09;;;;;;;3.22;1.10;;;;;;;7.19;100.00;92584.22;5066679;28;20456;-60
2023/10/28 01:59:37;;;;;;;3.63;1.23;;;;;;;7.16;100.00;92585.06;5066802;28;20049;-60
2023/10/28 02:02:05;;;;;;;3.35;1.02;;;;;;;7.17;100.00;92587.38;5066462;28;20171;-60
2023/10/28 02:04:33;;;;;;;4.57;1.03;;;;;;;7.19;100.00;92586.94;5066287;28;20056;-60
2023/10/28 02:07:00;;;;;;;3.75;1.10;;;;;;;7.30;100.00;92592.91;5066964;28;20131;-60
2023/10/28 02:09:28;;;;;;;3.30;1.35;;;;;;;7.33;100.00;92591.28;5071211;28;20482;-60
2023/10/28 02:11:55;;;;;;;3.38;1.02;;;;;;;7.32;100.00;92590.50;5069706;28;20914;-60
2023/10/28 02:14:24;;;;;;;4.53;1.00;;;;;;;7.35;100.00;92583.44;5070732;28;20082;-60
2023/10/28 02:16:51;;;;;;;2.80;1.03;;;;;;;7.35;100.00;92592.41;5070337;28;20055;-60
2023/10/28 02:19:20;;;;;;;3.22;1.10;;;;;;;7.33;100.00;92577.66;5070647;28;20041;-60
2023/10/28 02:21:48;;;;;;;3.50;1.20;;;;;;;7.32;100.00;92582.31;5069895;28;20051;-60
2023/10/28 02:24:25;;;;;;;3.78;1.30;;;;;;;7.35;100.00;92580.72;5068923;28;20485;-60
2023/10/28 02:26:52;;;;;;;3.78;1.30;;;;;;;7.32;100.00;92574.13;5070555;28;20040;-60
2023/10/28 02:29:19;;;;;;;5.03;1.10;;;;;;;7.31;100.00;92578.06;5075937;28;20045;-61
2023/10/28 02:31:46;;;;;;;4.80;1.02;;;;;;;7.32;100.00;92568.66;5070505;28;20056;-61
2023/10/28 02:34:13;;;;;;;2.80;1.30;;;;;;;7.29;100.00;92576.97;5071275;28;20052;-60
2023/10/28 02:36:39;;;;;;;5.20;1.30;;;;;;;7.36;100.00;92582.22;5070404;28;20044;-60
2023/10/28 02:39:06;;;;;;;4.28;1.20;;;;;;;7.38;100.00;92583.38;5071193;28;20386;-60
2023/10/28 02:41:33;;;;;;;3.27;1.20;;;;;;;7.39;100.00;92584.88;5070074;28;20079;-60
2023/10/28 02:44:02;;;;;;;3.50;1.00;;;;;;;7.35;100.00;92591.63;5071071;28;20497;-60
2023/10/28 02:46:29;;;;;;;3.55;1.13;;;;;;;7.38;100.00;92585.31;5079698;28;20047;-60
2023/10/28 02:48:56;;;;;;;4.38;1.08;;;;;;;7.35;100.00;92583.44;5070220;28;20575;-61
2023/10/28 02:51:22;;;;;;;2.83;1.15;;;;;;;7.36;100.00;92587.69;5070896;28;20075;-61
2023/10/28 02:53:49;;;;;;;2.53;0.80;;;;;;;7.36;100.00;92584.97;5070208;28;20129;-60
2023/10/28 02:56:16;;;;;;;3.38;1.13;;;;;;;7.37;100.00;92589.25;5070651;28;20076;-60
2023/10/28 02:58:42;;;;;;;2.80;1.00;;;;;;;7.36;100.00;92590.44;5070229;28;20390;-61
2023/10/28 03:01:11;;;;;;;3.45;1.05;;;;;;;7.38;100.00;92588.03;5070455;28;20048;-60
2023/10/28 03:03:39;;;;;;;3.35;1.13;;;;;;;7.47;100.00;92601.09;5070189;28;20481;-61
2023/10/28 03:06:06;;;;;;;4.60;1.00;;;;;;;7.44;100.00;92593.75;5070337;28;20041;-60
2023/10/28 03:08:33;;;;;;;4.80;1.08;;;;;;;7.42;100.00;92588.72;5070061;28;20044;-60
2023/10/28 03:11:00;;;;;;;5.32;1.10;;;;;;;7.47;100.00;92590.94;5070649;28;20037;-60
2023/10/28 03:13:27;;;;;;;4.18;1.05;;;;;;;7.45;100.00;92590.59;5070347;28;20040;-60
2023/10/28 03:15:54;;;;;;;5.47;1.30;;;;;;;7.33;100.00;92583.88;5070135;28;20473;-61
2023/10/28 03:18:21;;;;;;;2.60;1.10;;;;;;;7.26;100.00;92592.22;5070112;28;20485;-60
2023/10/28 03:20:48;;;;;;;3.40;1.15;;;;;;;7.11;100.00;92591.78;5069452;28;20071;-60
2023/10/28 03:23:15;;;;;;;2.70;1.02;;;;;;;7.01;100.00;92587.34;5067534;28;20053;-60
2023/10/28 03:25:42;;;;;;;4.50;1.10;;;;;;;6.98;100.00;92593.66;5069790;28;20491;-60
2023/10/28 03:28:09;;;;;;;4.38;1.00;;;;;;;6.89;100.00;92599.69;5071567;28;20052;-60
2023/10/28 03:30:36;;;;;;;5.10;1.50;;;;;;;6.80;100.00;92603.03;5072944;28;20036;-61
2023/10/28 03:33:02;;;;;;;5.90;1.50;;;;;;;6.83;100.00;92604.13;5070029;28;20056;-60
2023/10/28 03:35:29;;;;;;;3.17;1.30;;;;;;;6.81;100.00;92603.78;5069618;28;20150;-61
2023/10/28 03:37:56;;;;;;;4.43;1.20;;;;;;;6.73;100.00;92595.00;5070004;28;20049;-60
2023/10/28 03:40:24;;;;;;;3.08;1.27;;;;;;;6.73;100.00;92600.44;5069482;28;20052;-60
2023/10/28 03:42:50;;;;;;;6.60;1.17;;;;;;;6.82;100.00;92599.84;5051838;28;20049;-60
2023/10/28 03:45:17;;;;;;;2.72;1.20;;;;;;;6.89;100.00;92610.63;5069744;28;20563;-60
2023/10/28 03:47:44;;;;;;;4.05;1.48;;;;;;;6.89;100.00;92605.16;5078046;28;20155;-60
2023/10/28 03:50:11;;;;;;;5.32;1.40;;;;;;;6.80;100.00;92613.13;5069585;28;20105;-61
2023/10/28 03:52:38;;;;;;;5.40;1.60;;;;;;;6.82;100.00;92610.00;5069031;28;20044;-60
2023/10/28 03:55:05;;;;;;;5.50;1.20;;;;;;;6.86;100.00;92614.19;5069367;28;20041;-60
2023/10/28 03:57:32;;;;;;;3.60;1.17;;;;;;;6.80;100.00;92613.94;5069267;28;20048;-60
2023/10/28 03:59:58;;;;;;;4.35;1.20;;;;;;;6.59;100.00;92614.38;5069554;28;20406;-60
2023/10/28 04:02:25;;;;;;;4.00;1.15;;;;;;;6.71;100.00;92611.00;5069259;28;20109;-60
2023/10/28 04:04:53;;;;;;;3.55;1.30;;;;;;;6.87;100.00;92604.06;5068624;28;20045;-61
2023/10/28 04:07:21;;;;;;;3.10;1.30;;;;;;;6.99;100.00;92612.31;5069218;28;20044;-61
2023/10/28 04:09:47;;;;;;;3.28;1.30;;;;;;;7.05;100.00;92604.41;5068886;28;20394;-61
2023/10/28 04:12:15;;;;;;;3.75;1.20;;;;;;;7.08;100.00;92617.19;5069048;28;20056;-60
2023/10/28 04:14:42;;;;;;;2.97;0.98;;;;;;;7.10;100.00;92609.38;5068541;28;20037;-60
2023/10/28 04:17:09;;;;;;;3.97;1.20;;;;;;;7.15;100.00;92597.19;5069173;28;20040;-60
2023/10/28 04:19:35;;;;;;;3.83;1.10;;;;;;;7.20;100.00;92616.53;5068611;28;20051;-60
2023/10/28 04:22:02;;;;;;;2.60;1.00;;;;;;;7.24;100.00;92615.66;5069302;28;20040;-60
2023/10/28 04:24:29;;;;;;;2.90;1.10;;;;;;;7.27;100.00;92601.19;5058889;28;20505;-61
2023/10/28 04:26:55;;;;;;;7.18;3.13;;;;;;;7.36;100.00;92604.84;5065372;28;20390;-60
2023/10/28 04:29:22;;;;;;;3.35;1.35;;;;;;;7.37;100.00;92602.88;5055091;28;20060;-60
2023/10/28 04:31:49;;;;;;;6.77;1.03;;;;;;;7.23;100.00;92605.97;5067726;28;20426;-60
2023/10/28 04:34:16;;;;;;;5.72;1.27;;;;;;;7.11;100.00;92591.78;5068085;28;20603;-60
2023/10/28 04:36:43;;;;;;;3.72;1.20;;;;;;;7.06;100.00;92597.75;5067453;28;20072;-60
2023/10/28 04:39:10;;;;;;;3.97;1.30;;;;;;;6.96;100.00;92596.03;5066872;28;20075;-60
2023/10/28 04:41:37;;;;;;;4.35;1.40;;;;;;;6.89;100.00;92599.69;5067490;28;20041;-60
2023/10/28 04:44:04;;;;;;;3.83;1.20;;;;;;;6.83;100.00;92598.66;5067533;28;20049;-61
2023/10/28 04:46:30;;;;;;;3.30;1.02;;;;;;;6.84;100.00;92605.69;5076325;28;20040;-60
2023/10/28 04:48:57;;;;;;;4.43;1.30;;;;;;;6.80;100.00;92599.50;5067945;28;20041;-60
2023/10/28 04:51:24;;;;;;;3.05;1.10;;;;;;;6.77;100.00;92600.38;5067587;28;20055;-61
2023/10/28 04:53:51;;;;;;;4.38;1.20;;;;;;;6.75;100.00;92603.50;5053527;28;20061;-60
2023/10/28 04:56:18;;;;;;;4.17;0.90;;;;;;;6.82;100.00;92607.28;5067587;28;20048;-60
2023/10/28 04:58:45;;;;;;;4.28;1.45;;;;;;;6.76;100.00;92610.50;5067030;28;20075;-62
2023/10/28 05:01:12;;;;;;;5.60;1.45;;;;;;;6.85;100.00;92614.63;5067538;28;20386;-61
2023/10/28 05:03:39;;;;;;;3.13;1.10;;;;;;;6.90;100.00;92598.53;5067022;28;20056;-61
2023/10/28 05:06:09;;;;;;;3.55;1.48;;;;;;;6.79;100.00;92601.47;5067089;28;20036;-61
2023/10/28 05:08:36;;;;;;;3.40;1.30;;;;;;;6.84;100.00;92599.44;5067141;28;20097;-61
2023/10/28 05:11:03;;;;;;;4.07;1.50;;;;;;;6.91;100.00;92594.59;5067953;28;20450;-60
2023/10/28 05:13:30;;;;;;;5.25;1.58;;;;;;;6.98;100.00;92594.44;5049414;28;20044;-60
2023/10/28 05:15:58;;;;;;;3.47;1.48;;;;;;;6.88;100.00;92598.19;5067565;28;20432;-60
2023/10/28 05:18:26;;;;;;;3.75;1.60;;;;;;;6.87;100.00;92593.91;5067075;28;20090;-60
2023/10/28 05:20:56;;;;;;;2.60;1.10;;;;;;;6.86;100.00;92597.06;5067003;28;20052;-61
2023/10/28 05:23:23;;;;;;;3.55;1.30;;;;;;;6.87;100.00;92601.31;5067223;28;20045;-60
2023/10/28 05:25:49;;;;;;;4.10;1.23;;;;;;;6.80;100.00;92602.22;5067104;28;20421;-61
2023/10/28 05:28:16;;;;;;;4.68;1.52;;;;;;;6.84;100.00;92594.78;5062836;28;20485;-61
2023/10/28 05:30:43;;;;;;;4.15;1.27;;;;;;;6.79;100.00;92601.47;5054401;28;20045;-61
2023/10/28 05:33:10;;;;;;;5.07;1.40;;;;;;;6.87;100.00;92606.78;5060063;28;20404;-61
2023/10/28 05:35:37;;;;;;;3.03;1.27;;;;;;;6.86;100.00;92600.56;5048376;28;20106;-60
2023/10/28 05:38:04;;;;;;;3.20;1.20;;;;;;;6.83;100.00;92597.91;5046591;28;20085;-60
2023/10/28 05:40:31;;;;;;;3.38;1.48;;;;;;;6.83;100.00;92606.84;5054701;28;20052;-61
2023/10/28 05:42:57;;;;;;;3.67;1.50;;;;;;;6.79;100.00;92606.16;5048605;28;20049;-61
2023/10/28 05:45:24;;;;;;;4.73;1.33;;;;;;;6.75;100.00;92611.69;5053113;28;20049;-60
2023/10/28 05:47:52;;;;;;;3.63;1.20;;;;;;;6.80;100.00;92608.47;5051670;28;20097;-61
2023/10/28 05:50:19;;;;;;;3.83;1.40;;;;;;;6.77;100.00;92616.72;5055377;28;20035;-62
2023/10/28 05:52:47;;;;;;;4.88;1.50;;;;;;;6.76;100.00;92615.97;5050164;28;20037;-60
2023/10/28 05:55:14;;;;;;;5.45;2.33;;;;;;;6.73;100.00;92616.81;5050638;28;20053;-60
2023/10/28 05:57:41;;;;;;;4.43;1.90;;;;;;;6.78;100.00;92620.97;5057628;28;20044;-60
2023/10/28 06:00:11;;;;;;;3.47;1.40;;;;;;;6.82;100.00;92626.34;5048651;28;20041;-61
2023/10/28 06:02:38;;;;;;;3.80;1.70;;;;;;;6.83;100.00;92631.41;5033204;28;20454;-61
2023/10/28 06:05:06;;;;;;;4.28;1.85;;;;;;;6.86;100.00;92637.97;5050289;28;20041;-61
2023/10/28 06:07:33;;;;;;;4.60;2.30;;;;;;;6.93;100.00;92637.81;5040257;28;20044;-61
2023/10/28 06:10:00;;;;;;;6.73;1.83;;;;;;;6.93;100.00;92646.75;5048991;28;20037;-61
2023/10/28 06:12:27;;;;;;;7.75;3.50;;;;;;;6.83;100.00;92653.22;5049953;28;20048;-61
2023/10/28 06:14:53;;;;;;;7.40;4.10;;;;;;;6.88;100.00;92658.19;5050020;28;20051;-60
2023/10/28 06:17:20;;;;;;;4.75;1.80;;;;;;;6.94;100.00;92656.47;5049921;28;20131;-61
2023/10/28 06:19:47;;;;;;;15.68;10.50;;;;;;;6.92;100.00;92658.06;5049841;28;20075;-61
2023/10/28 06:22:14;;;;;;;7.57;5.13;;;;;;;6.93;100.00;92665.84;5032285;28;20033;-62
2023/10/28 06:24:41;;;;;;;5.93;2.58;;;;;;;7.03;100.00;92668.78;5058100;28;20043;-61
2023/10/28 06:27:08;;;;;;;22.55;15.75;;;;;;;7.06;100.00;92665.94;5032025;28;20041;-60
2023/10/28 06:29:35;;;;;;;6.20;2.78;;;;;;;7.06;100.00;92662.47;5058880;28;20059;-61
2023/10/28 06:32:02;;;;;;;5.75;2.40;;;;;;;7.24;100.00;92670.25;5049589;28;20058;-61
2023/10/28 06:34:31;;;;;;;3.37;1.60;;;;;;;7.37;100.00;92671.88;5049240;28;20393;-61
2023/10/28 06:36:57;;;;;;;3.35;1.45;;;;;;;7.49;100.00;92664.97;5049730;28;20045;-61
2023/10/28 06:39:24;;;;;;;3.75;1.60;;;;;;;7.55;100.00;92668.72;5032215;28;20163;-61
2023/10/28 06:41:51;;;;;;;3.58;1.75;;;;;;;7.53;100.00;92681.28;5049400;28;20037;-61
2023/10/28 06:44:19;;;;;;;4.03;1.63;;;;;;;7.52;100.00;92671.53;5049564;28;20481;-60
2023/10/28 06:46:46;;;;;;;3.23;1.60;;;;;;;7.49;100.00;92677.88;5058500;28;20142;-61
2023/10/28 06:49:13;;;;;;;3.92;1.48;;;;;;;7.59;100.00;92679.56;5049317;28;20052;-61
2023/10/28 06:51:40;;;;;;;4.13;1.60;;;;;;;7.68;100.00;92682.47;5049039;28;20417;-61
2023/10/28 06:54:06;;;;;;;3.70;1.50;;;;;;;7.63;100.00;92680.25;5047532;28;20059;-61
2023/10/28 06:56:34;;;;;;;5.90;1.50;;;;;;;7.64;100.00;92678.28;5049663;28;20057;-62
2023/10/28 06:59:01;;;;;;;4.57;1.60;;;;;;;7.85;100.00;92682.44;5055296;28;20045;-62
2023/10/28 07:01:28;;;;;;;4.93;1.58;;;;;;;9.89;100.00;92675.88;5047426;28;20063;-62
2023/10/28 07:03:55;;;;;;;3.35;1.60;;;;;;;11.33;100.00;92677.16;5053462;28;21714;-61
2023/10/28 07:06:21;;;;;;;4.20;1.55;;;;;;;10.20;100.00;92685.03;5048399;28;20049;-62
2023/10/28 07:08:48;;;;;;;3.92;1.60;;;;;;;9.31;100.00;92680.41;5029461;28;20037;-61
2023/10/28 07:11:15;;;;;;;3.93;1.47;;;;;;;8.79;100.00;92687.81;5049059;28;20051;-62
2023/10/28 07:13:42;;;;;;;4.05;1.50;;;;;;;8.66;100.00;92681.53;5016047;28;20394;-61
2023/10/28 07:16:08;;;;;;;4.15;1.45;;;;;;;8.51;100.00;92688.56;5048951;28;20540;-61
2023/10/28 07:18:35;;;;;;;4.60;1.50;;;;;;;8.39;100.00;92682.63;5048386;28;20326;-59
2023/10/28 07:21:02;;;;;;;3.30;1.60;;;;;;;8.39;100.00;92690.81;5047607;28;20072;-61
2023/10/28 07:23:30;;;;;;;5.13;1.50;;;;;;;8.38;100.00;92694.75;5045537;28;20033;-62
2023/10/28 07:25:59;;;;;;;6.00;2.95;;;;;;;8.32;100.00;92692.97;5055993;28;20736;-61
2023/10/28 07:28:25;;;;;;;4.15;1.88;;;;;;;8.40;100.00;92691.59;5057865;28;20045;-61
2023/10/28 07:30:52;;;;;;;4.60;1.73;;;;;;;8.35;100.00;92692.88;5048249;28;20543;-62
2023/10/28 07:33:20;;;;;;;5.22;2.03;;;;;;;8.42;100.00;92691.19;5047621;28;20574;-61
2023/10/28 07:35:48;;;;;;;5.87;1.50;;;;;;;8.53;100.00;92697.91;5048015;28;20041;-61
2023/10/28 07:38:15;;;;;;;3.15;1.55;;;;;;;8.74;100.00;92707.47;5054748;28;20053;-61
2023/10/28 07:40:43;;;;;;;3.53;1.60;;;;;;;8.94;100.00;92715.53;5049565;28;20033;-61
2023/10/28 07:43:13;;;;;;;3.55;1.50;;;;;;;9.60;100.00;92724.13;5048124;28;20041;-62
2023/10/28 07:45:41;;;;;;;3.10;1.20;;;;;;;10.20;100.00;92720.69;5047612;28;20043;-61
2023/10/28 07:48:09;;;;;;;4.73;1.50;;;;;;;9.79;100.00;92729.81;5043629;28;20044;-61
2023/10/28 07:50:36;;;;;;;5.38;1.77;;;;;;;9.17;100.00;92735.59;5045984;28;20041;-61
2023/10/28 07:53:04;;;;;;;4.75;1.95;;;;;;;8.77;100.00;92736.72;5046620;28;20676;-61
2023/10/28 07:55:32;;;;;;;3.97;1.50;;;;;;;8.52;100.00;92742.84;5047826;28;20061;-62
2023/10/28 07:57:59;;;;;;;3.15;1.52;;;;;;;8.66;100.00;92743.66;5058518;28;20704;-61
2023/10/28 08:00:26;;;;;;;3.97;1.30;;;;;;;8.61;100.00;92753.16;5042971;28;20491;-62
2023/10/28 08:02:53;;;;;;;4.47;1.98;;;;;;;8.89;100.00;92748.13;5050376;28;20404;-61
2023/10/28 08:05:20;;;;;;;3.60;1.60;;;;;;;9.26;100.00;92746.69;5051916;28;20478;-60
2023/10/28 08:07:50;;;;;;;4.95;1.60;;;;;;;10.09;100.00;92747.66;5046940;28;20489;-61
2023/10/28 08:10:22;;;;;;;6.20;1.40;;;;;;;11.87;100.00;92739.03;5047907;28;20125;-62
2023/10/28 08:12:56;;;;;;;2.87;1.40;;;;;;;13.45;100.00;92734.47;5046601;28;20048;-62
2023/10/28 08:15:28;;;;;;;4.22;1.30;;;;;;;13.61;100.00;92739.63;5047667;28;20387;-62
2023/10/28 08:17:55;;;;;;;3.53;1.70;;;;;;;12.81;100.00;92747.03;5044529;28;20049;-63
2023/10/28 08:20:23;;;;;;;4.38;1.80;;;;;;;12.26;100.00;92749.72;5029277;28;20047;-61
2023/10/28 08:22:50;;;;;;;5.85;2.00;;;;;;;11.68;100.00;92748.44;5058326;28;20504;-62
2023/10/28 08:25:16;;;;;;;4.27;1.60;;;;;;;10.61;100.00;92747.56;5061096;28;20049;-61
2023/10/28 08:27:47;;;;;;;5.55;1.60;;;;;;;10.29;100.00;92750.16;5028912;28;20041;-61
2023/10/28 08:30:16;;;;;;;4.88;1.90;;;;;;;10.17;100.00;92748.97;5029395;28;20041;-61
2023/10/28 08:32:44;;;;;;;4.13;1.67;;;;;;;10.31;100.00;92747.00;5055489;28;20067;-62
2023/10/28 08:35:11;;;;;;;6.50;1.58;;;;;;;10.97;100.00;92749.84;5047421;28;20087;-61
2023/10/28 08:37:38;;;;;;;4.83;1.50;;;;;;;10.69;100.00;92746.13;5047061;28;20449;-61
2023/10/28 08:40:10;;;;;;;3.30;1.30;;;;;;;11.26;100.00;92744.06;5048108;28;20520;-61
2023/10/28 08:42:37;;;;;;;3.00;1.10;;;;;;;11.22;100.00;92746.19;5046141;28;20041;-61
2023/10/28 08:45:05;;;;;;;3.80;1.38;;;;;;;11.03;100.00;92741.78;5047191;28;20040;-62
2023/10/28 08:47:34;;;;;;;3.05;1.40;;;;;;;11.85;100.00;92738.72;5045646;28;20103;-62
2023/10/28 08:50:06;;;;;;;4.17;1.47;;;;;;;13.02;100.00;92739.88;5047636;28;20057;-62
2023/10/28 08:52:37;;;;;;;3.25;1.20;;;;;;;12.74;100.00;92733.59;5053815;28;20464;-62
2023/10/28 08:55:05;;;;;;;4.65;1.20;;;;;;;11.55;100.00;92743.00;5047375;28;20044;-62
2023/10/28 08:57:34;;;;;;;4.05;1.30;;;;;;;11.82;100.00;92739.63;5054998;28;20045;-63
2023/10/28 09:00:07;;;;;;;3.38;1.27;;;;;;;11.46;100.00;92746.47;5047140;28;20079;-62
2023/10/28 09:02:35;;;;;;;4.13;1.77;;;;;;;11.34;100.00;92745.34;5047095;28;20053;-61
2023/10/28 09:05:03;;;;;;;5.57;1.60;;;;;;;10.71;100.00;92752.69;5054251;28;20693;-61
2023/10/28 09:07:30;;;;;;;3.83;1.40;;;;;;;10.81;100.00;92756.28;5046789;28;20060;-59
2023/10/28 09:10:00;;;;;;;3.83;1.30;;;;;;;10.91;100.00;92746.13;5047310;28;20049;-60
2023/10/28 09:12:26;;;;;;;4.05;1.40;;;;;;;11.07;100.00;92745.94;5048296;28;20044;-63
2023/10/28 09:14:53;;;;;;;4.33;1.57;;;;;;;10.89;100.00;92757.56;5046720;28;20460;-62
2023/10/28 09:17:20;;;;;;;3.90;1.50;;;;;;;11.10;100.00;92745.03;5046299;28;20044;-62
2023/10/28 09:19:47;;;;;;;4.32;1.60;;;;;;;11.00;100.00;92748.94;5046543;28;20045;-62
2023/10/28 09:22:15;;;;;;;4.68;1.38;;;;;;;11.33;100.00;92745.81;5026900;28;20049;-62
2023/10/28 09:24:46;;;;;;;3.38;1.30;;;;;;;11.65;100.00;92752.84;5045063;28;20037;-62
2023/10/28 09:27:15;;;;;;;3.30;1.43;;;;;;;11.54;100.00;92750.50;5053182;28;20098;-62
2023/10/28 09:29:42;;;;;;;4.13;1.50;;;;;;;11.86;100.00;92756.75;5048067;28;20067;-60
2023/10/28 09:32:09;;;;;;;5.13;1.40;;;;;;;12.26;100.00;92764.25;5043460;28;20060;-61
2023/10/28 09:34:40;;;;;;;6.68;1.50;;;;;;;13.14;100.00;92762.97;5045796;28;20049;-62
2023/10/28 09:37:08;;;;;;;3.97;1.50;;;;;;;13.46;100.00;92747.78;5047238;28;20525;-60
2023/10/28 09:39:36;;;;;;;3.13;1.40;;;;;;;15.01;100.00;92751.47;5054064;28;20040;-62
2023/10/28 09:42:04;;;;;;;3.92;1.35;;;;;;;15.60;94.76;92753.59;5046805;28;20049;-63
2023/10/28 09:44:33;;;;;;;3.88;1.40;;;;;;;18.08;86.37;92738.13;5054100;28;20036;-64
2023/10/28 09:47:07;;;;;;;4.30;1.20;;;;;;;18.61;74.22;92755.38;5036943;28;20417;-63
2023/10/28 09:49:40;;;;;;;3.05;1.00;;;;;;;15.90;90.17;92749.59;5064151;28;20700;-63
2023/10/28 09:52:07;;;;;;;5.13;1.33;;;;;;;15.83;94.18;92755.50;5066727;28;20478;-64
2023/10/28 09:54:36;;;;;;;5.47;1.48;;;;;;;14.11;100.00;92761.38;5048351;28;20762;-61
2023/10/28 09:57:07;;;;;;;3.83;1.70;;;;;;;13.07;100.00;92769.53;5065992;28;20132;-63
2023/10/28 09:59:38;;;;;;;6.30;3.40;;;;;;;12.98;100.00;92764.78;5065440;28;20047;-61
2023/10/28 10:02:27;;;;;;;5.15;2.13;;;;;;;13.24;100.00;92764.47;5065430;28;20039;-60
2023/10/28 10:05:30;;;;;;;5.70;2.97;;;;;;;12.74;100.00;92770.13;5064626;28;20045;-61
2023/10/28 10:07:57;;;;;;;4.60;2.40;;;;;;;12.23;100.00;92767.88;5017695;28;20433;-62
2023/10/28 10:10:24;;;;;;;3.67;1.83;;;;;;;12.34;100.00;92770.97;5045279;28;20137;-61
2023/10/28 10:13:01;;;;;;;4.30;1.30;;;;;;;12.45;100.00;92772.53;5027821;28;20122;-61
2023/10/28 10:15:32;;;;;;;3.80;2.00;;;;;;;12.97;100.00;92768.00;5058394;28;20055;-63
2023/10/28 10:18:07;;;;;;;6.43;3.13;;;;;;;12.84;100.00;92772.88;5045641;28;20053;-60
2023/10/28 10:20:35;;;;;;;3.38;1.63;;;;;;;12.40;100.00;92784.91;5048076;28;20467;-62
2023/10/28 10:23:03;;;;;;;4.60;1.83;;;;;;;12.41;100.00;92774.66;5043904;28;20113;-61
2023/10/28 10:25:35;;;;;;;4.90;2.35;;;;;;;12.22;100.00;92763.63;5028525;28;20053;-62
2023/10/28 10:28:23;;;;;;;6.95;3.20;;;;;;;12.29;100.00;92765.31;5052584;28;20293;-62
2023/10/28 10:30:51;;;;;;;4.03;2.40;;;;;;;12.45;100.00;92773.28;5051727;28;20413;-62
2023/10/28 10:33:26;;;;;;;18.85;10.55;;;;;;;13.15;100.00;92770.00;5063580;28;20156;-63
2023/10/28 10:35:53;;;;;;;8.00;3.90;;;;;;;13.72;100.00;92766.69;5049715;28;20409;-60
2023/10/28 10:38:28;;;;;;;5.15;1.83;;;;;;;14.23;100.00;92768.66;5057729;28;20045;-59
2023/10/28 10:41:00;;;;;;;4.35;1.40;;;;;;;13.38;100.00;92763.09;5048627;28;21061;-59
2023/10/28 10:43:31;;;;;;;4.97;2.00;;;;;;;12.95;100.00;92762.94;5057614;28;20063;-59
2023/10/28 10:45:58;;;;;;;7.03;2.70;;;;;;;12.77;100.00;92762.94;5048370;28;20773;-60
2023/10/28 10:48:25;;;;;;;5.32;1.20;;;;;;;12.83;100.00;92772.13;5047784;28;20043;-60
2023/10/28 10:50:55;;;;;;;5.53;1.40;;;;;;;12.93;100.00;92770.91;5046036;28;20041;-59
2023/10/28 10:53:22;;;;;;;5.40;3.30;;;;;;;12.67;100.00;92769.66;5048133;28;20049;-60
2023/10/28 10:55:49;;;;;;;5.00;2.23;;;;;;;12.83;100.00;92771.38;5049064;28;20045;-60
2023/10/28 10:58:16;;;;;;;9.68;5.00;;;;;;;12.84;100.00;92761.88;5049226;28;20051;-60
2023/10/28 11:00:51;;;;;;;3.50;1.40;;;;;;;13.03;100.00;92760.66;5050295;28;20431;-60
2023/10/28 11:03:18;;;;;;;7.80;3.40;;;;;;;13.09;100.00;92755.31;5053954;28;20076;-59
2023/10/28 11:05:46;;;;;;;5.18;1.52;;;;;;;12.78;100.00;92758.97;5056378;28;20114;-59
2023/10/28 11:08:14;;;;;;;3.47;1.07;;;;;;;12.67;100.00;92764.91;5058456;28;20045;-59
2023/10/28 11:10:45;;;;;;;5.18;1.30;;;;;;;13.03;100.00;92762.66;5048604;28;20358;-60
2023/10/28 11:13:12;;;;;;;5.20;2.10;;;;;;;13.30;100.00;92753.63;5047721;28;20527;-61
2023/10/28 11:15:38;;;;;;;8.05;1.63;;;;;;;13.51;100.00;92740.88;5047305;28;20149;-62
2023/10/28 11:18:07;;;;;;;4.82;1.30;;;;;;;13.84;98.61;92742.91;5048918;28;20055;-60
2023/10/28 11:20:34;;;;;;;3.80;1.20;;;;;;;16.16;91.55;92737.91;5048674;28;20098;-60
2023/10/28 11:23:02;;;;;;;5.10;1.20;;;;;;;17.99;77.61;92729.19;5052369;28;20044;-61
2023/10/28 11:25:33;;;;;;;5.43;1.48;;;;;;;18.15;75.18;92718.25;5049577;28;20080;-61
2023/10/28 11:28:07;;;;;;;3.40;1.00;;;;;;;20.43;65.73;92719.19;5056635;28;20725;-62
2023/10/28 11:30:34;;;;;;;4.43;1.20;;;;;;;19.65;62.46;92723.47;5048758;28;20092;-60
2023/10/28 11:33:07;;;;;;;3.30;1.27;;;;;;;17.45;68.38;92719.38;5047368;28;20037;-61
2023/10/28 11:35:35;;;;;;;4.18;1.42;;;;;;;18.30;64.46;92701.41;5048195;28;20704;-61